Time;durP1;ratioP1;P1;durP2;ratioP2;P2;SDS_P1;SDS_P2;PMS_P1;PMS_P2;Temp;Humidity;BMP_temperature;BMP_pressure;BME280_temperature;BME280_humidity;BME280_pressure;Samples;Min_cycle;Max_cycle;Signal;HPM_P1;HPM_P2
2022/02/24 00:02:20;;;;;;;4.93;2.23;;;;;;;5.40;85.17;97139.47;5075263;28;20188;-63
2022/02/24 00:04:46;;;;;;;2.30;2.10;;;;;;;5.39;85.09;97135.25;5075138;28;20181;-63
2022/02/24 00:07:11;;;;;;;2.70;2.37;;;;;;;5.31;85.45;97139.75;5075266;28;20196;-63
2022/02/24 00:09:37;;;;;;;2.17;2.00;;;;;;;5.38;84.94;97132.84;5075137;28;20266;-63
2022/02/24 00:12:04;;;;;;;3.50;2.20;;;;;;;5.47;84.24;97134.31;5075110;28;20181;-63
2022/02/24 00:14:29;;;;;;;2.23;2.03;;;;;;;5.47;84.72;97131.72;5074588;28;20259;-63
2022/02/24 00:16:55;;;;;;;2.30;2.10;;;;;;;5.57;84.06;97123.63;5074627;28;20165;-63
2022/02/24 00:19:20;;;;;;;2.30;2.10;;;;;;;5.57;83.88;97121.03;5075160;28;20328;-63
2022/02/24 00:21:46;;;;;;;2.47;2.17;;;;;;;5.54;84.11;97127.41;5075028;28;20492;-63
2022/02/24 00:24:11;;;;;;;2.97;2.13;;;;;;;5.61;83.89;97120.47;5074529;28;20181;-63
2022/02/24 00:26:37;;;;;;;2.80;2.40;;;;;;;5.64;83.98;97133.06;5074426;28;20184;-65
2022/02/24 00:29:04;;;;;;;2.43;2.20;;;;;;;5.64;83.73;97125.28;5074422;28;20212;-64
2022/02/24 00:31:29;;;;;;;2.40;2.20;;;;;;;5.65;83.35;97119.09;5075069;28;20177;-63
2022/02/24 00:33:54;;;;;;;2.43;2.23;;;;;;;5.68;83.98;97120.53;5073290;28;20258;-63
2022/02/24 00:36:20;;;;;;;3.57;2.30;;;;;;;5.67;83.05;97114.53;5074519;28;20298;-63
2022/02/24 00:38:45;;;;;;;2.80;2.23;;;;;;;5.87;82.23;97117.28;5073458;28;20641;-63
2022/02/24 00:41:10;;;;;;;3.30;2.23;;;;;;;5.79;82.67;97120.03;5074457;28;20254;-63
2022/02/24 00:43:36;;;;;;;6.17;2.80;;;;;;;5.71;83.02;97123.53;5074040;28;20638;-63
2022/02/24 00:46:01;;;;;;;2.70;2.50;;;;;;;5.90;82.27;97114.34;5073229;28;20196;-63
2022/02/24 00:48:27;;;;;;;4.57;2.60;;;;;;;5.78;82.20;97111.41;5074907;28;20255;-63
2022/02/24 00:50:52;;;;;;;4.83;2.23;;;;;;;5.84;82.27;97113.25;5074401;28;20180;-63
2022/02/24 00:53:17;;;;;;;4.10;2.30;;;;;;;5.68;83.03;97110.94;5073961;28;20201;-63
2022/02/24 00:55:44;;;;;;;3.87;2.40;;;;;;;5.77;82.45;97109.00;5073912;28;20622;-63
2022/02/24 00:58:09;;;;;;;3.30;2.60;;;;;;;5.94;82.25;97097.34;5073803;28;20503;-64
2022/02/24 01:00:34;;;;;;;2.70;2.40;;;;;;;5.86;81.97;97098.25;5074066;28;20264;-63
2022/02/24 01:03:00;;;;;;;4.33;2.50;;;;;;;5.79;82.96;97096.63;5073438;28;20172;-63
2022/02/24 01:05:25;;;;;;;4.50;2.37;;;;;;;5.91;82.39;97092.50;5074167;28;20563;-63
2022/02/24 01:07:51;;;;;;;2.17;2.00;;;;;;;5.95;82.18;97095.56;5073840;28;20567;-63
2022/02/24 01:10:16;;;;;;;2.93;2.03;;;;;;;5.84;82.14;97084.66;5073522;28;20212;-64
2022/02/24 01:12:41;;;;;;;3.20;2.20;;;;;;;5.83;82.75;97085.63;5073191;28;20185;-65
2022/02/24 01:15:08;;;;;;;2.57;2.37;;;;;;;5.78;82.79;97080.19;5073575;28;20197;-64
2022/02/24 01:17:39;;;;;;;2.53;2.30;;;;;;;5.85;82.33;97075.81;5074108;28;20602;-63
2022/02/24 01:20:06;;;;;;;3.03;2.37;;;;;;;5.86;82.38;97072.25;5073389;28;20267;-64
2022/02/24 01:22:31;;;;;;;2.10;2.00;;;;;;;5.80;82.58;97070.41;5073286;28;20579;-63
2022/02/24 01:24:56;;;;;;;2.23;2.00;;;;;;;5.79;83.10;97081.81;5072956;28;20200;-65
2022/02/24 01:27:22;;;;;;;2.97;2.50;;;;;;;5.75;83.56;97074.56;5073311;28;20243;-63
2022/02/24 01:29:48;;;;;;;4.93;2.63;;;;;;;5.83;83.13;97074.44;5073011;28;20189;-63
2022/02/24 01:32:13;;;;;;;2.70;2.20;;;;;;;5.66;83.34;97073.09;5073557;28;20169;-64
2022/02/24 01:34:38;;;;;;;4.70;2.40;;;;;;;5.75;83.23;97069.34;5073190;28;20205;-64
2022/02/24 01:37:04;;;;;;;4.90;2.80;;;;;;;5.65;83.66;97061.09;5073182;28;20539;-63
2022/02/24 01:39:29;;;;;;;4.67;2.80;;;;;;;5.54;84.27;97057.19;5073443;28;20178;-63
2022/02/24 01:41:55;;;;;;;2.73;2.53;;;;;;;5.65;83.44;97059.28;5073340;28;20575;-64
2022/02/24 01:44:22;;;;;;;2.50;2.30;;;;;;;5.43;84.35;97073.31;5073013;28;20264;-64
2022/02/24 01:46:48;;;;;;;2.60;2.40;;;;;;;5.46;84.34;97067.75;5071253;28;20184;-65
2022/02/24 01:49:14;;;;;;;2.77;2.50;;;;;;;5.37;84.62;97067.06;5073010;28;20193;-63
2022/02/24 01:51:39;;;;;;;2.93;2.33;;;;;;;5.43;84.65;97057.72;5073026;28;20188;-63
2022/02/24 01:54:05;;;;;;;2.77;2.20;;;;;;;5.32;85.50;97050.41;5072784;28;20246;-63
2022/02/24 01:56:31;;;;;;;3.10;2.47;;;;;;;5.43;84.85;97047.31;5072967;28;20177;-64
2022/02/24 01:58:58;;;;;;;2.43;2.23;;;;;;;5.30;85.16;97045.41;5072923;28;20695;-63
2022/02/24 02:01:23;;;;;;;2.87;2.57;;;;;;;5.18;86.41;97040.91;5072837;28;20226;-64
2022/02/24 02:03:50;;;;;;;3.17;2.47;;;;;;;5.39;85.43;97027.91;5072363;28;20185;-64
2022/02/24 02:06:16;;;;;;;2.33;2.13;;;;;;;5.28;85.42;97028.41;5072834;28;20185;-64
2022/02/24 02:08:42;;;;;;;2.77;2.40;;;;;;;5.07;86.73;97026.59;5072847;28;20188;-63
2022/02/24 02:11:08;;;;;;;6.50;2.43;;;;;;;5.08;87.32;97014.41;5072927;28;20177;-63
2022/02/24 02:13:35;;;;;;;2.27;2.07;;;;;;;5.13;86.91;97023.25;5072802;28;20257;-63
2022/02/24 02:16:01;;;;;;;3.87;2.37;;;;;;;5.12;87.55;97013.88;5072525;28;20188;-64
2022/02/24 02:18:26;;;;;;;2.57;2.37;;;;;;;5.18;87.45;97014.94;5071818;28;20311;-64
2022/02/24 02:20:52;;;;;;;2.63;2.43;;;;;;;5.14;87.81;97005.88;5072652;28;20220;-63
2022/02/24 02:23:17;;;;;;;2.40;1.97;;;;;;;5.19;87.81;96993.94;5072511;28;20224;-64
2022/02/24 02:25:43;;;;;;;2.97;2.37;;;;;;;5.37;87.09;97002.09;5072167;28;20181;-64
2022/02/24 02:28:12;;;;;;;2.40;2.20;;;;;;;5.48;86.73;96997.34;5072241;28;20253;-63
2022/02/24 02:30:38;;;;;;;2.73;2.23;;;;;;;5.44;86.91;96986.53;5072073;28;20169;-64
2022/02/24 02:33:03;;;;;;;2.40;2.20;;;;;;;5.41;86.86;96992.91;5072500;28;20184;-64
2022/02/24 02:35:29;;;;;;;3.73;2.57;;;;;;;5.39;87.57;96988.91;5072561;28;20177;-63
2022/02/24 02:37:54;;;;;;;3.77;2.50;;;;;;;5.56;86.66;96987.63;5072179;28;20671;-64
2022/02/24 02:40:20;;;;;;;2.33;2.00;;;;;;;5.52;86.33;96983.78;5070793;28;20201;-63
2022/02/24 02:42:45;;;;;;;3.60;2.50;;;;;;;5.67;85.96;96981.09;5072502;28;20238;-65
2022/02/24 02:45:11;;;;;;;2.43;2.23;;;;;;;5.75;85.81;96989.53;5071976;28;20528;-64
2022/02/24 02:47:36;;;;;;;3.93;2.33;;;;;;;5.73;86.00;96981.16;5071940;28;20185;-63
2022/02/24 02:50:03;;;;;;;3.47;2.57;;;;;;;5.69;86.13;96973.91;5072379;28;20185;-63
2022/02/24 02:52:29;;;;;;;3.90;2.20;;;;;;;5.86;85.72;96975.19;5072658;28;20173;-63
2022/02/24 02:55:00;;;;;;;3.37;2.13;;;;;;;5.86;85.41;96963.00;5072449;28;20219;-63
2022/02/24 02:57:26;;;;;;;2.33;2.23;;;;;;;5.70;86.45;96960.72;5072406;28;20173;-63
2022/02/24 02:59:51;;;;;;;2.90;2.50;;;;;;;5.72;86.45;96963.94;5074811;28;20181;-63
2022/02/24 03:02:16;;;;;;;2.03;1.90;;;;;;;5.87;85.51;96961.22;5076187;28;20177;-63
2022/02/24 03:04:42;;;;;;;5.63;2.00;;;;;;;5.88;85.11;96960.25;5076272;28;20199;-63
2022/02/24 03:07:07;;;;;;;3.17;2.27;;;;;;;5.88;85.51;96957.66;5076014;28;20177;-63
2022/02/24 03:09:33;;;;;;;3.10;2.20;;;;;;;5.83;85.92;96953.00;5076015;28;20197;-63
2022/02/24 03:11:58;;;;;;;3.03;2.00;;;;;;;5.87;85.44;96953.44;5076148;28;20261;-64
2022/02/24 03:14:23;;;;;;;3.33;2.20;;;;;;;5.83;85.74;96950.38;5075766;28;20194;-64
2022/02/24 03:16:49;;;;;;;5.20;2.37;;;;;;;5.72;86.10;96947.53;5076044;28;20211;-64
2022/02/24 03:19:14;;;;;;;2.10;1.97;;;;;;;5.82;85.85;96942.78;5075816;28;20221;-64
2022/02/24 03:21:39;;;;;;;2.33;2.13;;;;;;;5.80;85.61;96937.75;5076202;28;20205;-63
2022/02/24 03:24:06;;;;;;;4.60;2.37;;;;;;;5.84;85.72;96938.19;5074490;28;20691;-64
2022/02/24 03:26:32;;;;;;;4.63;2.60;;;;;;;6.02;85.54;96938.47;5074064;28;20223;-64
2022/02/24 03:28:57;;;;;;;2.53;2.17;;;;;;;5.94;85.32;96930.06;5075510;28;20181;-66
2022/02/24 03:31:22;;;;;;;3.23;2.27;;;;;;;5.95;85.05;96929.88;5075562;28;20205;-63
2022/02/24 03:33:48;;;;;;;4.07;2.40;;;;;;;5.92;85.62;96930.25;5076035;28;20536;-63
2022/02/24 03:36:14;;;;;;;2.50;2.20;;;;;;;5.79;86.19;96923.16;5075638;28;20184;-63
2022/02/24 03:38:40;;;;;;;2.77;1.83;;;;;;;5.79;85.89;96920.56;5075604;28;20193;-64
2022/02/24 03:41:05;;;;;;;2.33;2.13;;;;;;;5.91;85.77;96917.44;5074015;28;20169;-64
2022/02/24 03:43:30;;;;;;;2.37;2.17;;;;;;;5.84;85.89;96914.78;5075558;28;20190;-65
2022/02/24 03:45:56;;;;;;;3.47;2.40;;;;;;;5.86;86.56;96930.97;5075282;28;20189;-65
2022/02/24 03:48:21;;;;;;;3.50;2.37;;;;;;;6.01;85.44;96918.69;5076019;28;20177;-64
2022/02/24 03:50:46;;;;;;;4.27;2.30;;;;;;;6.07;84.69;96909.31;5075144;28;20185;-62
2022/02/24 03:53:12;;;;;;;2.33;2.03;;;;;;;5.93;85.64;96908.44;5075408;28;20208;-65
2022/02/24 03:55:37;;;;;;;3.33;2.20;;;;;;;5.89;85.84;96911.63;5075321;28;20173;-62
2022/02/24 03:58:02;;;;;;;3.57;2.23;;;;;;;5.81;86.04;96912.56;5074937;28;20181;-63
2022/02/24 04:00:28;;;;;;;2.97;2.23;;;;;;;6.05;84.73;96912.09;5074967;28;20169;-65
2022/02/24 04:02:55;;;;;;;2.37;2.17;;;;;;;5.94;85.13;96910.06;5074912;28;20668;-65
2022/02/24 04:05:21;;;;;;;2.57;2.37;;;;;;;5.84;85.20;96909.59;5074963;28;20177;-64
2022/02/24 04:07:46;;;;;;;4.30;2.50;;;;;;;5.91;85.01;96907.03;5075250;28;20490;-64
2022/02/24 04:10:12;;;;;;;4.40;2.63;;;;;;;5.66;85.99;96910.09;5075003;28;20181;-64
2022/02/24 04:12:37;;;;;;;3.30;2.57;;;;;;;5.59;86.71;96906.66;5074551;28;20174;-65
2022/02/24 04:15:03;;;;;;;3.13;2.23;;;;;;;5.73;85.84;96904.94;5074416;28;20587;-64
2022/02/24 04:17:28;;;;;;;4.50;2.97;;;;;;;5.69;85.86;96901.91;5074511;28;20182;-64
2022/02/24 04:19:54;;;;;;;3.67;2.40;;;;;;;5.77;85.30;96896.53;5074781;28;20235;-64
2022/02/24 04:22:19;;;;;;;2.80;2.47;;;;;;;5.73;85.61;96890.13;5074853;28;20247;-64
2022/02/24 04:24:45;;;;;;;3.73;2.43;;;;;;;5.65;86.04;96889.47;5074629;28;20235;-65
2022/02/24 04:27:10;;;;;;;3.73;2.77;;;;;;;5.54;86.46;96882.22;5073440;28;20169;-64
2022/02/24 04:29:36;;;;;;;3.90;2.70;;;;;;;5.56;86.50;96886.25;5074591;28;20181;-64
2022/02/24 04:32:02;;;;;;;2.47;2.20;;;;;;;5.40;86.90;96884.78;5074859;28;20192;-64
2022/02/24 04:34:27;;;;;;;3.60;2.50;;;;;;;5.43;87.27;96878.38;5074331;28;20189;-64
2022/02/24 04:36:52;;;;;;;2.57;2.30;;;;;;;5.51;86.55;96882.63;5073359;28;20177;-62
2022/02/24 04:39:18;;;;;;;2.40;2.20;;;;;;;5.29;87.63;96874.91;5074652;28;20189;-64
2022/02/24 04:41:44;;;;;;;2.90;2.50;;;;;;;5.23;88.12;96872.25;5074561;28;20181;-64
2022/02/24 04:44:09;;;;;;;3.30;2.57;;;;;;;5.32;88.23;96876.31;5074375;28;20181;-65
2022/02/24 04:46:35;;;;;;;4.70;2.50;;;;;;;5.42;87.84;96864.56;5072777;28;20268;-64
2022/02/24 04:49:02;;;;;;;3.80;2.80;;;;;;;5.38;88.07;96860.75;5072400;28;20190;-65
2022/02/24 04:51:27;;;;;;;4.23;2.90;;;;;;;5.41;87.86;96864.75;5072389;28;20249;-65
2022/02/24 04:53:52;;;;;;;5.40;3.03;;;;;;;5.34;88.41;96862.16;5074055;28;20338;-65
2022/02/24 04:56:18;;;;;;;5.10;2.87;;;;;;;5.40;87.88;96861.38;5073927;28;20256;-65
2022/02/24 04:58:43;;;;;;;4.57;2.47;;;;;;;5.39;88.57;96853.78;5074571;28;20523;-64
2022/02/24 05:01:09;;;;;;;4.97;2.63;;;;;;;5.52;87.52;96847.84;5073905;28;20297;-65
2022/02/24 05:03:34;;;;;;;4.03;2.77;;;;;;;5.48;87.79;96839.59;5073791;28;20532;-65
2022/02/24 05:05:59;;;;;;;3.93;2.97;;;;;;;5.59;87.22;96822.66;5074349;28;20177;-64
2022/02/24 05:08:25;;;;;;;3.00;2.70;;;;;;;5.37;87.99;96825.38;5073843;28;20181;-65
2022/02/24 05:10:51;;;;;;;4.63;3.00;;;;;;;5.54;87.44;96812.84;5073557;28;20181;-64
2022/02/24 05:13:17;;;;;;;2.73;2.53;;;;;;;5.27;87.96;96816.31;5073938;28;20198;-64
2022/02/24 05:15:42;;;;;;;4.67;3.17;;;;;;;5.16;88.75;96820.25;5073535;28;20395;-64
2022/02/24 05:18:07;;;;;;;3.53;3.00;;;;;;;5.16;89.02;96809.88;5073469;28;20209;-64
2022/02/24 05:20:33;;;;;;;5.23;3.20;;;;;;;5.16;89.51;96811.66;5072780;28;20187;-64
2022/02/24 05:22:58;;;;;;;3.20;2.90;;;;;;;5.01;90.10;96806.59;5073405;28;20260;-64
2022/02/24 05:25:24;;;;;;;5.07;3.37;;;;;;;4.96;90.16;96814.94;5073523;28;20177;-64
2022/02/24 05:27:50;;;;;;;4.83;3.37;;;;;;;5.01;90.57;96798.81;5073545;28;20181;-61
2022/02/24 05:30:16;;;;;;;4.97;3.60;;;;;;;4.86;90.56;96798.09;5073379;28;20182;-62
2022/02/24 05:32:42;;;;;;;4.13;3.30;;;;;;;4.85;91.58;96796.47;5072373;28;20511;-62
2022/02/24 05:35:08;;;;;;;4.80;3.70;;;;;;;4.83;91.75;96803.69;5073405;28;20196;-62
2022/02/24 05:37:34;;;;;;;7.47;3.30;;;;;;;4.86;91.23;96791.09;5073286;28;20178;-63
2022/02/24 05:40:01;;;;;;;5.07;3.20;;;;;;;4.77;91.09;96794.03;5073301;28;20169;-64
2022/02/24 05:42:27;;;;;;;4.53;3.47;;;;;;;4.82;90.90;96795.06;5073636;28;20744;-62
2022/02/24 05:44:52;;;;;;;5.07;3.67;;;;;;;4.88;90.35;96796.91;5071926;28;20193;-63
2022/02/24 05:47:18;;;;;;;5.07;3.47;;;;;;;4.85;90.79;96799.06;5072957;28;20188;-63
2022/02/24 05:49:44;;;;;;;4.93;3.87;;;;;;;4.74;90.82;96799.59;5072844;28;20221;-63
2022/02/24 05:52:09;;;;;;;4.13;3.47;;;;;;;4.65;91.35;96796.34;5071362;28;20185;-62
2022/02/24 05:54:35;;;;;;;4.10;3.17;;;;;;;4.75;90.29;96796.03;5073077;28;20189;-62
2022/02/24 05:57:00;;;;;;;4.97;3.83;;;;;;;4.45;91.81;96796.22;5072916;28;20189;-62
2022/02/24 05:59:26;;;;;;;5.83;4.50;;;;;;;4.37;92.81;96788.56;5072764;28;20262;-64
2022/02/24 06:01:52;;;;;;;4.70;3.50;;;;;;;4.35;92.42;96787.94;5072375;28;20534;-62
2022/02/24 06:04:20;;;;;;;5.60;4.20;;;;;;;4.39;92.45;96789.19;5073171;28;20189;-63
2022/02/24 06:06:46;;;;;;;4.80;3.80;;;;;;;4.38;92.91;96789.38;5073052;28;20227;-62
2022/02/24 06:09:11;;;;;;;4.73;4.30;;;;;;;4.47;92.96;96786.44;5072125;28;20185;-63
2022/02/24 06:11:37;;;;;;;7.80;4.33;;;;;;;4.37;93.65;96783.38;5072629;28;20193;-63
2022/02/24 06:14:03;;;;;;;6.43;4.43;;;;;;;4.48;93.26;96782.84;5072738;28;20276;-63
2022/02/24 06:16:28;;;;;;;5.03;3.70;;;;;;;4.47;93.33;96791.63;5071594;28;20521;-63
2022/02/24 06:18:53;;;;;;;5.13;4.60;;;;;;;4.60;93.06;96789.16;5073025;28;20213;-63
2022/02/24 06:21:19;;;;;;;7.23;4.50;;;;;;;4.54;93.18;96784.69;5072773;28;20174;-63
2022/02/24 06:23:45;;;;;;;4.87;4.10;;;;;;;4.54;93.35;96781.31;5071143;28;20177;-63
2022/02/24 06:26:10;;;;;;;6.30;4.57;;;;;;;4.65;92.97;96787.75;5072681;28;20363;-63
2022/02/24 06:28:36;;;;;;;6.83;4.57;;;;;;;4.59;93.11;96791.91;5072904;28;20192;-65
2022/02/24 06:31:01;;;;;;;7.97;4.50;;;;;;;4.61;93.51;96797.75;5071854;28;20259;-64
2022/02/24 06:33:26;;;;;;;5.00;4.50;;;;;;;4.70;93.51;96791.41;5072895;28;20232;-64
2022/02/24 06:35:52;;;;;;;5.33;4.67;;;;;;;4.69;94.03;96789.78;5071360;28;20216;-63
2022/02/24 06:38:17;;;;;;;5.20;4.57;;;;;;;4.81;93.01;96782.28;5072260;28;20191;-63
2022/02/24 06:40:43;;;;;;;8.53;4.60;;;;;;;4.72;92.71;96775.66;5072525;28;20189;-65
2022/02/24 06:43:08;;;;;;;6.80;5.10;;;;;;;4.69;93.24;96781.19;5072081;28;20170;-64
2022/02/24 06:45:33;;;;;;;6.87;4.73;;;;;;;4.72;93.23;96781.63;5072021;28;20587;-64
2022/02/24 06:47:59;;;;;;;6.63;4.80;;;;;;;4.74;93.01;96777.03;5072601;28;20252;-63
2022/02/24 06:50:24;;;;;;;6.93;4.67;;;;;;;4.86;92.40;96779.91;5072343;28;20570;-63
2022/02/24 06:52:50;;;;;;;5.73;4.43;;;;;;;4.84;91.89;96780.13;5071894;28;20193;-63
2022/02/24 06:55:15;;;;;;;5.80;4.50;;;;;;;4.76;92.50;96775.06;5072557;28;20204;-63
2022/02/24 06:57:46;;;;;;;8.53;4.93;;;;;;;4.91;91.93;96775.75;5072132;28;20178;-65
2022/02/24 07:00:12;;;;;;;8.90;5.03;;;;;;;4.96;91.74;96770.78;5071846;28;20174;-63
2022/02/24 07:02:38;;;;;;;5.27;4.60;;;;;;;5.09;91.79;96767.47;5072004;28;20188;-64
2022/02/24 07:05:04;;;;;;;7.10;4.77;;;;;;;4.92;92.64;96769.56;5072080;28;20188;-64
2022/02/24 07:07:31;;;;;;;10.27;5.70;;;;;;;5.16;91.44;96763.09;5072061;28;20174;-63
2022/02/24 07:09:57;;;;;;;8.93;4.60;;;;;;;5.18;91.38;96755.13;5071885;28;20181;-63
2022/02/24 07:12:22;;;;;;;6.77;5.33;;;;;;;5.07;91.12;96753.06;5070494;28;20196;-64
2022/02/24 07:14:48;;;;;;;6.33;5.20;;;;;;;5.16;90.64;96759.72;5071720;28;20185;-64
2022/02/24 07:17:13;;;;;;;6.03;4.80;;;;;;;5.25;90.03;96751.53;5072467;28;20525;-63
2022/02/24 07:19:38;;;;;;;5.50;4.90;;;;;;;5.39;89.56;96753.22;5072460;28;20185;-64
2022/02/24 07:22:04;;;;;;;9.97;5.40;;;;;;;5.32;89.28;96752.38;5072389;28;20673;-65
2022/02/24 07:24:29;;;;;;;6.10;4.10;;;;;;;6.11;100.00;96749.19;5072068;28;20201;-67
2022/02/24 07:26:54;;;;;;;8.23;6.37;;;;;;;7.66;96.36;96742.22;5072405;28;20230;-68
2022/02/24 07:29:20;;;;;;;12.13;6.40;;;;;;;8.28;84.33;96741.41;5072188;28;20548;-67
2022/02/24 07:31:45;;;;;;;8.83;5.70;;;;;;;7.41;79.56;96744.75;5072149;28;20207;-66
2022/02/24 07:34:10;;;;;;;6.73;4.83;;;;;;;6.75;81.09;96746.75;5072578;28;20249;-66
2022/02/24 07:36:39;;;;;;;7.53;5.37;;;;;;;6.51;82.49;96739.59;5072120;28;20192;-66
2022/02/24 07:39:10;;;;;;;5.87;4.53;;;;;;;6.10;84.94;96740.59;5071543;28;20177;-66
2022/02/24 07:41:37;;;;;;;5.70;4.67;;;;;;;6.09;84.56;96735.56;5071357;28;20173;-68
2022/02/24 07:44:02;;;;;;;7.30;4.40;;;;;;;6.19;85.39;96744.59;5072447;28;20238;-66
2022/02/24 07:46:28;;;;;;;5.50;4.50;;;;;;;6.15;85.85;96738.19;5073976;28;20182;-66
2022/02/24 07:48:53;;;;;;;4.40;3.93;;;;;;;6.22;85.08;96733.78;5075702;28;20189;-65
2022/02/24 07:51:18;;;;;;;7.10;4.47;;;;;;;6.28;84.50;96734.78;5075161;28;20526;-66
2022/02/24 07:53:44;;;;;;;6.00;4.70;;;;;;;6.51;83.56;96737.00;5075130;28;20646;-66
2022/02/24 07:56:09;;;;;;;7.77;4.47;;;;;;;6.48;83.46;96726.97;5075522;28;20193;-66
2022/02/24 07:58:34;;;;;;;5.97;4.23;;;;;;;6.32;83.87;96732.59;5075203;28;20230;-66
2022/02/24 08:01:00;;;;;;;7.40;4.60;;;;;;;6.30;84.25;96729.41;5075353;28;20614;-66
2022/02/24 08:03:25;;;;;;;6.70;4.40;;;;;;;6.40;83.73;96722.78;5076414;28;20237;-65
2022/02/24 08:05:51;;;;;;;10.43;5.03;;;;;;;6.55;83.54;96725.16;5075478;28;20181;-67
2022/02/24 08:08:16;;;;;;;6.27;4.83;;;;;;;6.80;82.22;96713.06;5074859;28;20269;-67
2022/02/24 08:10:41;;;;;;;9.03;5.10;;;;;;;6.79;82.07;96715.91;5072404;28;20662;-67
2022/02/24 08:13:07;;;;;;;5.97;4.13;;;;;;;6.93;81.89;96710.44;5074588;28;20185;-66
2022/02/24 08:15:32;;;;;;;6.87;4.60;;;;;;;7.04;81.23;96711.59;5074042;28;20216;-67
2022/02/24 08:17:58;;;;;;;9.70;4.80;;;;;;;7.06;80.47;96715.63;5076818;28;20216;-67
2022/02/24 08:20:23;;;;;;;6.33;4.10;;;;;;;7.08;80.45;96716.19;5073795;28;20183;-66
2022/02/24 08:22:49;;;;;;;6.50;4.67;;;;;;;6.92;80.52;96714.06;5074102;28;20177;-66
2022/02/24 08:25:17;;;;;;;4.90;4.10;;;;;;;6.88;81.10;96712.06;5074193;28;20692;-66
2022/02/24 08:27:44;;;;;;;5.90;4.60;;;;;;;7.05;80.67;96711.41;5077184;28;20391;-66
2022/02/24 08:30:12;;;;;;;5.33;4.50;;;;;;;7.07;80.13;96696.38;5095288;28;20176;-66
2022/02/24 08:32:39;;;;;;;5.70;4.27;;;;;;;7.34;79.41;96684.03;5073903;28;20197;-66
2022/02/24 08:35:09;;;;;;;5.57;4.40;;;;;;;7.34;79.22;96691.03;5074313;28;20207;-66
2022/02/24 08:37:35;;;;;;;5.80;4.23;;;;;;;7.62;77.88;96683.66;5073992;28;20230;-67
2022/02/24 08:40:01;;;;;;;4.03;3.53;;;;;;;7.78;77.07;96691.00;5073397;28;20253;-67
2022/02/24 08:42:26;;;;;;;8.27;3.97;;;;;;;8.01;76.56;96687.00;5068421;28;20692;-67
2022/02/24 08:44:53;;;;;;;4.57;3.27;;;;;;;7.92;75.75;96689.88;5074760;28;20181;-67
2022/02/24 08:47:18;;;;;;;4.27;3.63;;;;;;;8.07;76.07;96680.94;5074372;28;20212;-67
2022/02/24 08:49:45;;;;;;;4.67;3.63;;;;;;;8.22;75.32;96684.03;5073730;28;20240;-67
2022/02/24 08:52:11;;;;;;;8.03;4.40;;;;;;;8.13;75.15;96680.09;5074081;28;20179;-68
2022/02/24 08:54:37;;;;;;;4.40;3.50;;;;;;;8.10;75.53;96681.31;5074218;28;20236;-66
2022/02/24 08:57:03;;;;;;;5.17;3.30;;;;;;;8.31;75.12;96682.75;5073969;28;20201;-66
2022/02/24 08:59:29;;;;;;;4.00;3.30;;;;;;;8.27;74.45;96681.56;5073537;28;20181;-66
2022/02/24 09:01:54;;;;;;;5.40;3.50;;;;;;;8.28;74.34;96683.16;5074020;28;20182;-66
2022/02/24 09:04:20;;;;;;;5.30;3.20;;;;;;;8.52;73.81;96676.38;5074313;28;20490;-65
2022/02/24 09:06:45;;;;;;;5.90;2.70;;;;;;;8.42;74.10;96674.22;5074470;28;20520;-66
2022/02/24 09:09:11;;;;;;;4.40;2.90;;;;;;;8.62;73.73;96674.03;5074177;28;20181;-63
2022/02/24 09:11:37;;;;;;;3.90;2.87;;;;;;;8.88;72.98;96668.53;5074079;28;20173;-64
2022/02/24 09:14:03;;;;;;;3.13;2.83;;;;;;;9.05;72.27;96663.50;5073823;28;20217;-66
2022/02/24 09:16:29;;;;;;;4.57;3.37;;;;;;;9.07;72.24;96661.47;5073775;28;20256;-66
2022/02/24 09:18:54;;;;;;;3.00;2.70;;;;;;;9.37;71.35;96659.66;5073684;28;20319;-65
2022/02/24 09:21:20;;;;;;;2.63;2.33;;;;;;;9.46;70.67;96642.66;5073880;28;20590;-63
2022/02/24 09:23:45;;;;;;;3.80;2.60;;;;;;;9.36;70.57;96649.44;5073978;28;20586;-63
2022/02/24 09:26:11;;;;;;;3.50;2.47;;;;;;;9.59;69.97;96641.66;5073770;28;20169;-65
2022/02/24 09:28:37;;;;;;;2.63;2.43;;;;;;;9.70;69.55;96640.88;5072597;28;20174;-64
2022/02/24 09:31:02;;;;;;;3.20;2.63;;;;;;;9.47;69.74;96638.22;5073310;28;20228;-63
2022/02/24 09:33:28;;;;;;;3.17;2.43;;;;;;;9.32;70.79;96629.97;5073811;28;20177;-63
2022/02/24 09:35:54;;;;;;;3.43;3.10;;;;;;;9.49;70.50;96623.88;5073714;28;20178;-64
2022/02/24 09:38:19;;;;;;;6.00;2.67;;;;;;;9.59;69.86;96624.13;5073277;28;20173;-64
2022/02/24 09:40:47;;;;;;;4.23;2.30;;;;;;;9.74;68.99;96620.31;5073406;28;20219;-64
2022/02/24 09:43:14;;;;;;;5.20;2.53;;;;;;;9.90;68.27;96623.06;5073324;28;20214;-64
2022/02/24 09:45:41;;;;;;;3.13;2.60;;;;;;;10.20;68.10;96625.63;5072875;28;20215;-63
2022/02/24 09:48:08;;;;;;;4.83;2.77;;;;;;;10.51;65.65;96621.84;5072547;28;20261;-66
2022/02/24 09:50:35;;;;;;;2.67;2.20;;;;;;;10.35;66.49;96627.78;5072697;28;20533;-65
2022/02/24 09:53:02;;;;;;;4.40;2.40;;;;;;;10.56;66.26;96623.78;5072442;28;20174;-65
2022/02/24 09:55:28;;;;;;;3.47;2.37;;;;;;;10.65;65.85;96615.31;5073255;28;20201;-66
2022/02/24 09:57:53;;;;;;;5.77;2.70;;;;;;;10.60;66.88;96617.03;5071529;28;20180;-66
2022/02/24 10:00:20;;;;;;;2.77;2.30;;;;;;;10.96;65.37;96608.88;5072636;28;20212;-67
2022/02/24 10:02:46;;;;;;;2.67;2.20;;;;;;;10.59;64.84;96613.63;5072266;28;20312;-65
2022/02/24 10:05:14;;;;;;;2.70;2.00;;;;;;;10.83;63.29;96601.28;5071677;28;20264;-67
2022/02/24 10:07:41;;;;;;;2.83;1.80;;;;;;;10.99;62.30;96603.16;5071760;28;20173;-66
2022/02/24 10:10:31;;;;;;;1.93;1.70;;;;;;;11.33;61.59;96598.00;5071029;28;20462;-67
2022/02/24 10:13:00;;;;;;;2.97;2.00;;;;;;;11.54;60.72;96595.50;5071650;28;20253;-66
2022/02/24 10:15:26;;;;;;;2.30;1.60;;;;;;;11.71;59.79;96586.84;5071473;28;20209;-66
2022/02/24 10:18:14;;;;;;;2.33;1.80;;;;;;;11.88;59.38;96588.47;5073307;28;20663;-67
2022/02/24 10:20:51;;;;;;;3.63;1.87;;;;;;;11.97;59.25;96579.16;5092330;28;20181;-67
2022/02/24 10:23:19;;;;;;;3.50;1.73;;;;;;;12.17;58.61;96578.66;5092493;28;20282;-66
2022/02/24 10:25:47;;;;;;;2.10;1.50;;;;;;;11.93;58.11;96574.59;5095965;28;20180;-66
2022/02/24 10:28:38;;;;;;;2.73;1.67;;;;;;;12.13;58.43;96571.50;5094008;28;20189;-67
2022/02/24 10:31:12;;;;;;;2.07;1.37;;;;;;;12.11;58.12;96569.09;5072306;28;20176;-66
2022/02/24 10:33:40;;;;;;;2.07;1.40;;;;;;;12.35;58.29;96556.56;5092424;28;20179;-65
2022/02/24 10:36:14;;;;;;;2.90;1.53;;;;;;;12.25;58.16;96554.59;5092254;28;20185;-66
2022/02/24 10:38:40;;;;;;;2.07;1.70;;;;;;;12.33;57.18;96559.44;5092938;28;20173;-65
2022/02/24 10:41:06;;;;;;;2.53;1.53;;;;;;;12.36;57.29;96545.81;5092463;28;20520;-65
2022/02/24 10:43:36;;;;;;;1.77;1.47;;;;;;;12.15;57.86;96541.31;5092960;28;20180;-67
2022/02/24 10:46:06;;;;;;;2.47;1.43;;;;;;;12.04;56.47;96550.88;5093088;28;20177;-65
2022/02/24 10:48:45;;;;;;;1.40;1.30;;;;;;;12.25;56.62;96556.44;5093543;28;20177;-65
2022/02/24 10:51:10;;;;;;;1.47;1.37;;;;;;;12.33;55.96;96546.28;5092550;28;20169;-67
2022/02/24 10:53:36;;;;;;;2.60;1.43;;;;;;;12.19;55.92;96550.31;5086858;28;20180;-66
2022/02/24 10:56:04;;;;;;;3.57;1.50;;;;;;;12.20;55.51;96556.38;5072588;28;20206;-67
2022/02/24 10:58:45;;;;;;;2.93;1.37;;;;;;;12.27;55.12;96549.88;5072545;28;20189;-66
2022/02/24 11:01:19;;;;;;;1.53;1.30;;;;;;;12.35;54.97;96532.91;5091826;28;20211;-66
2022/02/24 11:03:46;;;;;;;1.47;1.37;;;;;;;12.38;55.17;96541.09;5091899;28;20180;-66
2022/02/24 11:06:12;;;;;;;3.30;1.40;;;;;;;12.59;54.88;96539.53;5092094;28;20187;-67
2022/02/24 11:08:39;;;;;;;4.67;1.80;;;;;;;12.64;54.33;96536.16;5091946;28;20181;-68
2022/02/24 11:11:06;;;;;;;2.50;1.60;;;;;;;12.71;53.92;96528.84;5092312;28;20203;-67
2022/02/24 11:13:32;;;;;;;1.90;1.43;;;;;;;12.76;53.99;96519.19;5073391;28;20233;-68
2022/02/24 11:15:59;;;;;;;1.73;1.40;;;;;;;12.74;53.82;96513.41;5092124;28;20180;-66
2022/02/24 11:18:25;;;;;;;1.70;1.30;;;;;;;13.03;53.89;96500.81;5081796;28;20209;-66
2022/02/24 11:20:52;;;;;;;2.37;1.50;;;;;;;12.89;53.83;96512.75;5075894;28;20196;-66
2022/02/24 11:23:18;;;;;;;2.33;1.47;;;;;;;12.68;54.50;96503.06;5076042;28;20231;-65
2022/02/24 11:25:54;;;;;;;1.70;1.27;;;;;;;13.02;53.44;96493.16;5075553;28;20180;-65
2022/02/24 11:28:21;;;;;;;2.67;1.43;;;;;;;13.20;53.47;96506.81;5075960;28;20173;-66
2022/02/24 11:30:54;;;;;;;1.37;1.27;;;;;;;13.33;51.47;96497.69;5075045;28;20205;-65
2022/02/24 11:33:21;;;;;;;2.07;1.60;;;;;;;13.42;51.93;96493.56;5075748;28;20166;-65
2022/02/24 11:36:07;;;;;;;2.37;1.50;;;;;;;13.53;51.72;96497.88;5074768;28;20177;-66
2022/02/24 11:38:32;;;;;;;2.03;1.33;;;;;;;13.36;50.67;96483.22;5060584;28;20165;-64